Terminal Aerodrome Forecast
Issued by NWS

Home | Current Version | Previous Version | Graphics & Text | Print | Product List | Glossary On
Versions: 1 2 3 4 5 6 7 8 9 10 11 12 13 14 15 16 17
237
FTUS43 KICT 192337
TAFRSL
TAF
KRSL 192337Z 2000/2024 01017G26KT P6SM OVC007
     FM200200 01017G26KT P6SM OVC013
     FM200900 33017G26KT P6SM OVC013
     FM201700 32017G26KT P6SM OVC022=

USA.gov is the U.S. government's official web portal to all federal, state and local government web resources and services.